Main page
METAR-TAF:

METAR-TAF

Airports :

Murcia–San Javier Airport

Murcia, Spain

latitude: 37-47N, longitude: 000-48W, elevation: 5 m

Current weather observation

The report was made 24 minutes ago, at 09:00 UTC
Wind 10 kt from the North/Northeast, varying between North and East/Northeast
Temperature 20°C
Humidity 60%
Pressure 1017 hPa
Visibility 10 km or more
Broken clouds at a height of 3200 ft

METAR: LELC 210900Z 03010KT 360V060 9999 BKN032 20/12 Q1017 NOSIG

Time: 11:24 (09:24 UTC)

Forecast

The report was made 4 hours and 24 minutes ago, at 05:00 UTC
Forecast valid from 21 at 06 UTC to 22 at 06 UTC
Wind 8 kt from the North
Visibility 10 km or more
no clouds below 1500 m and no cumulonimbus
Becoming
from 21 at 08 UTC to 21 at 11 UTC
Wind 10 kt from the East
Becoming
from 21 at 19 UTC to 21 at 22 UTC
Wind 5 kt from the West

TAF: LELC 210500Z 2106/2206 36008KT CAVOK TX20/2115Z TN12/2106Z BECMG 2108/2111 10010KT BECMG 2119/2122 27005KT

Weather observations and forecasts of more than 4000 airports (METAR and TAF reports).

The available stations are represented by yellow and red dots on the map.

Hover mouse over dot to see the name of the station.

Then click to see weather observations and forecasts.

To change the map : click on the green buttons with a black cross to zoom in, on the green button with a dash to zoom out, or on the green arrows for adjacent maps.


METAR-TAF: